Time;durP1;ratioP1;P1;durP2;ratioP2;P2;SDS_P1;SDS_P2;PMS_P1;PMS_P2;Temp;Humidity;BMP_temperature;BMP_pressure;BME280_temperature;BME280_humidity;BME280_pressure;Samples;Min_cycle;Max_cycle;Signal;HPM_P1;HPM_P2
2021/07/21 00:00:28;;;;;;;9.30;5.80;;;18.20;99.90;;;;;;5065415;28;20260;-73
2021/07/21 00:02:55;;;;;;;11.10;6.95;;;18.20;99.90;;;;;;5063827;28;20251;-71
2021/07/21 00:05:25;;;;;;;10.55;6.78;;;18.30;99.90;;;;;;5057416;28;20203;-71
2021/07/21 00:07:53;;;;;;;10.65;6.57;;;18.20;99.90;;;;;;5059650;28;20230;-71
2021/07/21 00:10:23;;;;;;;8.88;5.88;;;18.10;99.90;;;;;;5055626;28;20657;-71
2021/07/21 00:15:38;;;;;;;8.77;5.75;;;18.00;99.90;;;;;;5057659;28;20280;-71
2021/07/21 00:18:16;;;;;;;9.27;6.13;;;18.10;99.90;;;;;;5065020;28;20199;-71
2021/07/21 00:20:44;;;;;;;10.95;6.57;;;18.00;99.90;;;;;;5065223;28;20205;-71
2021/07/21 00:23:11;;;;;;;11.20;6.40;;;18.00;99.90;;;;;;5066578;28;20214;-71
2021/07/21 00:25:39;;;;;;;12.27;6.97;;;17.90;99.90;;;;;;5063839;28;20260;-71
2021/07/21 00:28:06;;;;;;;9.70;6.65;;;17.90;99.90;;;;;;5058634;28;20203;-71
2021/07/21 00:30:33;;;;;;;11.05;6.57;;;18.00;99.90;;;;;;5060245;28;20252;-71
2021/07/21 00:33:00;;;;;;;12.43;6.70;;;17.90;99.90;;;;;;5064992;28;20195;-71
2021/07/21 00:35:27;;;;;;;11.10;6.28;;;17.90;99.90;;;;;;5064295;28;20226;-71
2021/07/21 00:37:54;;;;;;;11.60;6.47;;;17.90;99.90;;;;;;5062599;28;20210;-71
2021/07/21 00:40:21;;;;;;;11.75;7.13;;;18.00;99.90;;;;;;5060624;28;20230;-71
2021/07/21 00:42:50;;;;;;;12.15;7.38;;;17.90;99.90;;;;;;5067559;28;20252;-71
2021/07/21 00:45:17;;;;;;;10.18;6.88;;;17.90;99.90;;;;;;5071269;28;20195;-71
2021/07/21 00:47:44;;;;;;;8.93;6.18;;;17.90;99.90;;;;;;5066047;28;20499;-71
2021/07/21 00:50:12;;;;;;;10.27;6.55;;;17.90;99.90;;;;;;5065861;28;20272;-71
2021/07/21 00:52:41;;;;;;;13.18;7.25;;;17.80;99.90;;;;;;5068683;28;20198;-71
2021/07/21 00:55:10;;;;;;;10.57;6.38;;;17.80;99.90;;;;;;5063625;28;20261;-71
2021/07/21 00:57:38;;;;;;;11.45;6.88;;;17.80;99.90;;;;;;5062737;28;20276;-71
2021/07/21 01:00:10;;;;;;;10.23;6.72;;;17.80;99.90;;;;;;5071361;28;20307;-71
2021/07/21 01:02:37;;;;;;;11.95;7.28;;;17.80;99.90;;;;;;5061387;28;20207;-71
2021/07/21 01:05:09;;;;;;;11.18;6.60;;;17.80;99.90;;;;;;5071573;28;20288;-71
2021/07/21 01:07:36;;;;;;;12.30;7.20;;;17.80;99.90;;;;;;5068536;28;20259;-71
2021/07/21 01:10:05;;;;;;;10.25;7.30;;;17.80;99.90;;;;;;5072525;28;20210;-71
2021/07/21 01:12:38;;;;;;;11.38;6.90;;;17.80;99.90;;;;;;5068907;28;20206;-71
2021/07/21 01:15:11;;;;;;;11.43;6.78;;;17.70;99.90;;;;;;5071395;28;20487;-71
2021/07/21 01:17:45;;;;;;;11.88;7.15;;;17.80;99.90;;;;;;5055416;28;20264;-71
2021/07/21 01:20:42;;;;;;;11.88;6.95;;;17.80;99.90;;;;;;5064123;28;20252;-71
2021/07/21 01:23:18;;;;;;;10.57;6.43;;;17.70;99.90;;;;;;5040808;28;20639;-71
2021/07/21 01:25:56;;;;;;;11.77;7.35;;;17.70;99.90;;;;;;5061174;28;20218;-71
2021/07/21 01:28:28;;;;;;;10.25;6.85;;;17.70;99.90;;;;;;5071478;28;20273;-71
2021/07/21 01:30:57;;;;;;;11.45;6.63;;;17.70;99.90;;;;;;5063118;28;20198;-71
2021/07/21 01:33:25;;;;;;;9.77;6.40;;;17.70;99.90;;;;;;5067830;28;20248;-71
2021/07/21 01:35:57;;;;;;;12.48;7.03;;;17.60;99.90;;;;;;5068573;28;20276;-71
2021/07/21 01:38:29;;;;;;;9.30;6.32;;;17.70;99.90;;;;;;5070789;28;20203;-71
2021/07/21 01:40:58;;;;;;;11.57;7.05;;;17.60;99.90;;;;;;5063999;28;20198;-71
2021/07/21 01:43:30;;;;;;;10.77;6.80;;;17.70;99.90;;;;;;5071170;28;20202;-71
2021/07/21 01:45:59;;;;;;;12.35;7.03;;;17.70;99.90;;;;;;5066274;28;20609;-71
2021/07/21 01:48:32;;;;;;;10.70;6.70;;;17.60;99.90;;;;;;5061796;28;20661;-70
2021/07/21 01:51:00;;;;;;;9.52;6.32;;;17.60;99.90;;;;;;5054046;28;20207;-70
2021/07/21 01:53:29;;;;;;;9.35;6.65;;;17.50;99.90;;;;;;5065870;28;20628;-70
2021/07/21 01:55:57;;;;;;;13.38;6.95;;;17.60;99.90;;;;;;5071511;28;20737;-70
2021/07/21 01:58:28;;;;;;;12.05;6.78;;;17.50;99.90;;;;;;5070279;28;20218;-70
2021/07/21 02:00:57;;;;;;;11.90;7.30;;;17.50;99.90;;;;;;5072529;28;20202;-70
2021/07/21 02:03:25;;;;;;;12.02;6.93;;;17.50;99.90;;;;;;5072637;28;20276;-70
2021/07/21 02:05:59;;;;;;;10.13;6.50;;;17.60;99.90;;;;;;5073043;28;20527;-70
2021/07/21 02:08:26;;;;;;;11.48;6.93;;;17.50;99.90;;;;;;5072881;28;20206;-71
2021/07/21 02:10:54;;;;;;;11.32;6.43;;;17.40;99.90;;;;;;5072632;28;20692;-70
2021/07/21 02:13:21;;;;;;;12.35;6.93;;;17.50;99.90;;;;;;5072930;28;20206;-70
2021/07/21 02:15:51;;;;;;;12.25;7.15;;;17.50;99.90;;;;;;5072897;28;20315;-73
2021/07/21 02:18:19;;;;;;;13.20;7.47;;;17.40;99.90;;;;;;5072567;28;20225;-73
2021/07/21 02:20:48;;;;;;;12.57;6.75;;;17.50;99.90;;;;;;5070842;28;20203;-73
2021/07/21 02:23:15;;;;;;;10.88;6.57;;;17.40;99.90;;;;;;5071420;28;20260;-73
2021/07/21 02:25:43;;;;;;;11.68;7.13;;;17.40;99.90;;;;;;5072680;28;20198;-73
2021/07/21 02:28:10;;;;;;;10.10;6.57;;;17.40;99.90;;;;;;5059385;28;20203;-73
2021/07/21 02:30:37;;;;;;;12.32;6.97;;;17.40;99.90;;;;;;5058975;28;20695;-73
2021/07/21 02:33:12;;;;;;;12.90;7.53;;;17.50;99.90;;;;;;5052607;28;20203;-72
2021/07/21 02:35:39;;;;;;;11.70;6.47;;;17.40;99.90;;;;;;5052437;28;20241;-72
2021/07/21 02:38:06;;;;;;;11.02;6.85;;;17.40;99.90;;;;;;5052959;28;20653;-73
2021/07/21 02:40:34;;;;;;;11.90;7.50;;;17.40;99.90;;;;;;5071162;28;20263;-73
2021/07/21 02:43:01;;;;;;;11.27;6.65;;;17.40;99.90;;;;;;5072582;28;20202;-72
2021/07/21 02:45:28;;;;;;;12.18;7.45;;;17.40;99.90;;;;;;5071579;28;20252;-72
2021/07/21 02:47:55;;;;;;;9.50;6.75;;;17.30;99.90;;;;;;5072650;28;20194;-72
2021/07/21 02:50:24;;;;;;;14.90;7.53;;;17.30;99.90;;;;;;5071546;28;20198;-72
2021/07/21 02:52:58;;;;;;;13.30;7.20;;;17.30;99.90;;;;;;5072663;28;20202;-72
2021/07/21 02:55:29;;;;;;;12.30;7.40;;;17.40;99.90;;;;;;5071645;28;20198;-73
2021/07/21 02:58:00;;;;;;;11.48;7.97;;;17.40;99.90;;;;;;5071889;28;20738;-72
2021/07/21 03:00:29;;;;;;;10.25;6.60;;;17.30;99.90;;;;;;5071360;28;20222;-73
2021/07/21 03:02:59;;;;;;;12.02;7.18;;;17.20;99.90;;;;;;5071964;28;20194;-72
2021/07/21 03:05:31;;;;;;;12.40;7.38;;;17.20;99.90;;;;;;5072168;28;20315;-73
2021/07/21 03:07:59;;;;;;;10.82;6.43;;;17.30;99.90;;;;;;5071924;28;20290;-72
2021/07/21 03:10:27;;;;;;;11.43;7.00;;;17.30;99.90;;;;;;5071459;28;20194;-72
2021/07/21 03:13:00;;;;;;;11.07;6.88;;;17.20;99.90;;;;;;5072027;28;20202;-72
2021/07/21 03:15:30;;;;;;;12.30;6.95;;;17.30;99.90;;;;;;5071740;28;20601;-71
2021/07/21 03:18:00;;;;;;;10.43;6.72;;;17.30;99.90;;;;;;5072008;28;20202;-71
2021/07/21 03:20:30;;;;;;;14.38;7.43;;;17.20;99.90;;;;;;5071593;28;20255;-70
2021/07/21 03:23:01;;;;;;;11.77;6.80;;;17.20;99.90;;;;;;5071468;28;20199;-73
2021/07/21 03:25:29;;;;;;;10.93;7.38;;;17.20;99.90;;;;;;5071579;28;20210;-70
2021/07/21 03:27:57;;;;;;;11.73;7.15;;;17.20;99.90;;;;;;5071461;28;20195;-73
2021/07/21 03:30:25;;;;;;;10.25;6.80;;;17.10;99.90;;;;;;5071246;28;20255;-73
2021/07/21 03:32:55;;;;;;;11.77;6.75;;;17.10;99.90;;;;;;5071410;28;20209;-73
2021/07/21 03:35:26;;;;;;;12.52;6.93;;;17.10;99.90;;;;;;5069407;28;20206;-73
2021/07/21 03:37:55;;;;;;;12.07;7.40;;;17.20;99.90;;;;;;5051259;28;20269;-73
2021/07/21 03:40:24;;;;;;;13.88;7.90;;;17.10;99.90;;;;;;5055047;28;20195;-74
2021/07/21 03:42:53;;;;;;;13.25;7.35;;;17.20;99.90;;;;;;5071193;28;20785;-73
2021/07/21 03:45:20;;;;;;;12.07;7.55;;;17.20;99.90;;;;;;5071354;28;20206;-73
2021/07/21 03:47:48;;;;;;;12.48;7.70;;;17.20;99.90;;;;;;5071099;28;20292;-73
2021/07/21 03:50:19;;;;;;;12.98;7.78;;;17.20;99.90;;;;;;5070758;28;20198;-73
2021/07/21 03:52:48;;;;;;;12.30;7.15;;;17.20;99.90;;;;;;5071177;28;20546;-73
2021/07/21 03:55:19;;;;;;;13.90;7.32;;;17.20;99.90;;;;;;5070621;28;20363;-73
2021/07/21 03:57:46;;;;;;;12.05;7.15;;;17.20;99.90;;;;;;5070986;28;20283;-73
2021/07/21 04:00:16;;;;;;;15.65;7.75;;;17.20;99.90;;;;;;5069628;28;20550;-73
2021/07/21 04:02:45;;;;;;;13.02;8.02;;;17.20;99.90;;;;;;5057858;28;20203;-73
2021/07/21 04:05:15;;;;;;;16.45;8.43;;;17.20;99.90;;;;;;5063300;28;20207;-73
2021/07/21 04:07:44;;;;;;;12.93;7.85;;;17.20;99.90;;;;;;5066797;28;20264;-73
2021/07/21 04:10:13;;;;;;;12.35;7.90;;;17.20;99.90;;;;;;5068946;28;20202;-73
2021/07/21 04:12:45;;;;;;;14.50;8.60;;;17.20;99.90;;;;;;5063245;28;20198;-73
2021/07/21 04:15:14;;;;;;;13.15;8.70;;;17.20;99.90;;;;;;5066747;28;20629;-73
2021/07/21 04:17:41;;;;;;;15.13;8.65;;;17.20;99.90;;;;;;5068990;28;20304;-73
2021/07/21 04:20:10;;;;;;;14.48;9.15;;;17.20;99.90;;;;;;5073786;28;20625;-73
2021/07/21 04:22:39;;;;;;;11.93;7.57;;;17.20;99.90;;;;;;5072337;28;20198;-73
2021/07/21 04:25:09;;;;;;;14.80;8.48;;;17.20;99.90;;;;;;5060222;28;20195;-73
2021/07/21 04:27:37;;;;;;;14.70;8.70;;;17.20;99.90;;;;;;5066193;28;20198;-73
2021/07/21 04:30:07;;;;;;;14.05;7.97;;;17.20;99.90;;;;;;5071020;28;20202;-73
2021/07/21 04:32:36;;;;;;;13.48;8.23;;;17.30;99.90;;;;;;5074424;28;20259;-73
2021/07/21 04:35:05;;;;;;;13.80;8.82;;;17.20;99.90;;;;;;5072628;28;20198;-73
2021/07/21 04:37:33;;;;;;;15.02;8.68;;;17.20;99.90;;;;;;5055222;28;20227;-71
2021/07/21 04:40:01;;;;;;;14.27;8.27;;;17.30;99.90;;;;;;5065905;28;20206;-72
2021/07/21 04:42:29;;;;;;;14.35;8.35;;;17.20;99.90;;;;;;5072582;28;20206;-71
2021/07/21 04:44:56;;;;;;;14.65;8.40;;;17.20;99.90;;;;;;5073277;28;20290;-70
2021/07/21 04:47:25;;;;;;;15.38;8.75;;;17.20;99.90;;;;;;5073255;28;20260;-71
2021/07/21 04:49:53;;;;;;;15.93;8.82;;;17.30;99.90;;;;;;5073901;28;20632;-72
2021/07/21 04:52:24;;;;;;;14.57;9.10;;;17.30;99.90;;;;;;5071848;28;20295;-72
2021/07/21 04:54:51;;;;;;;18.75;9.20;;;17.40;99.90;;;;;;5074531;28;20205;-72
2021/07/21 04:57:18;;;;;;;15.63;7.72;;;17.30;99.90;;;;;;5073672;28;20213;-70
2021/07/21 04:59:45;;;;;;;15.15;8.93;;;17.40;99.90;;;;;;5074747;28;20206;-71
2021/07/21 05:02:13;;;;;;;15.55;8.65;;;17.30;99.90;;;;;;5073795;28;20199;-72
2021/07/21 05:04:41;;;;;;;15.95;9.45;;;17.30;99.90;;;;;;5074599;28;20272;-71
2021/07/21 05:07:08;;;;;;;14.82;8.95;;;17.30;99.90;;;;;;5073588;28;20676;-71
2021/07/21 05:09:35;;;;;;;15.63;8.57;;;17.30;99.90;;;;;;5074211;28;20210;-71
2021/07/21 05:12:02;;;;;;;14.80;9.23;;;17.40;99.90;;;;;;5072805;28;20557;-70
2021/07/21 05:14:29;;;;;;;15.23;9.23;;;17.40;99.90;;;;;;5074334;28;20202;-73
2021/07/21 05:16:56;;;;;;;16.63;8.73;;;17.40;99.90;;;;;;5073864;28;20218;-73
2021/07/21 05:19:23;;;;;;;16.25;8.98;;;17.30;99.90;;;;;;5074294;28;20210;-73
2021/07/21 05:21:52;;;;;;;12.07;7.72;;;17.40;99.90;;;;;;5074049;28;20209;-71
2021/07/21 05:24:19;;;;;;;15.27;9.50;;;17.50;99.90;;;;;;5073961;28;20203;-73
2021/07/21 05:26:47;;;;;;;16.42;8.93;;;17.60;99.90;;;;;;5074144;28;20252;-72
2021/07/21 05:29:14;;;;;;;14.45;8.65;;;17.50;99.90;;;;;;5074183;28;20312;-72
2021/07/21 05:31:41;;;;;;;13.55;7.82;;;17.50;99.90;;;;;;5073865;28;20244;-70
2021/07/21 05:34:08;;;;;;;14.15;9.35;;;17.50;99.90;;;;;;5073646;28;20781;-71
2021/07/21 05:36:36;;;;;;;15.05;8.90;;;17.50;99.90;;;;;;5074302;28;20218;-71
2021/07/21 05:39:06;;;;;;;15.93;8.52;;;17.60;99.90;;;;;;5073569;28;20202;-70
2021/07/21 05:41:33;;;;;;;16.27;9.10;;;17.60;99.90;;;;;;5073809;28;20211;-73
2021/07/21 05:44:00;;;;;;;15.57;8.80;;;17.70;99.90;;;;;;5073400;28;20610;-72
2021/07/21 05:46:27;;;;;;;13.60;8.32;;;17.80;99.90;;;;;;5070503;28;20264;-72
2021/07/21 05:48:54;;;;;;;13.27;8.50;;;17.60;99.90;;;;;;5065051;28;20636;-72
2021/07/21 05:51:21;;;;;;;15.15;8.73;;;17.60;99.90;;;;;;5073593;28;20198;-72
2021/07/21 05:53:48;;;;;;;17.10;9.30;;;17.70;99.90;;;;;;5073287;28;20733;-70
2021/07/21 05:56:17;;;;;;;15.05;8.85;;;17.70;99.90;;;;;;5073565;28;20234;-70
2021/07/21 05:58:44;;;;;;;17.90;9.82;;;17.60;99.90;;;;;;5073062;28;20244;-73
2021/07/21 06:01:12;;;;;;;14.77;8.23;;;17.70;99.90;;;;;;5073377;28;20510;-73
2021/07/21 06:03:39;;;;;;;14.55;9.23;;;17.80;99.90;;;;;;5073178;28;20387;-74
2021/07/21 06:06:07;;;;;;;16.45;9.10;;;17.90;99.90;;;;;;5072964;28;20260;-73
2021/07/21 06:08:34;;;;;;;16.00;9.43;;;17.80;99.90;;;;;;5073426;28;20608;-70
2021/07/21 06:11:01;;;;;;;14.50;9.02;;;17.80;99.90;;;;;;5072757;28;20243;-72
2021/07/21 06:13:30;;;;;;;15.77;9.05;;;17.90;99.90;;;;;;5073282;28;20256;-73
2021/07/21 06:16:03;;;;;;;16.30;9.45;;;17.90;99.90;;;;;;5072653;28;20207;-73
2021/07/21 06:18:30;;;;;;;13.73;8.55;;;18.10;99.90;;;;;;5073113;28;20222;-73
2021/07/21 06:20:57;;;;;;;16.13;9.02;;;18.10;99.90;;;;;;5072739;28;20777;-73
2021/07/21 06:23:24;;;;;;;16.27;9.45;;;18.10;99.90;;;;;;5073136;28;20664;-73
2021/07/21 06:25:51;;;;;;;14.82;8.93;;;18.20;99.90;;;;;;5072779;28;20263;-73
2021/07/21 06:28:19;;;;;;;16.70;9.60;;;18.10;99.90;;;;;;5072881;28;20615;-73
2021/07/21 06:30:47;;;;;;;14.63;8.35;;;18.00;99.90;;;;;;5072226;28;20202;-73
2021/07/21 06:33:17;;;;;;;15.75;8.52;;;18.00;99.90;;;;;;5072902;28;20611;-73
2021/07/21 06:35:44;;;;;;;14.77;8.85;;;18.00;99.90;;;;;;5072066;28;20205;-73
2021/07/21 06:38:11;;;;;;;15.70;9.07;;;17.90;99.90;;;;;;5072742;28;20222;-73
2021/07/21 06:40:38;;;;;;;16.98;9.02;;;18.00;99.90;;;;;;5072356;28;20656;-72
2021/07/21 06:43:05;;;;;;;15.50;8.73;;;18.10;99.90;;;;;;5072569;28;20244;-72
2021/07/21 06:45:32;;;;;;;19.17;9.23;;;18.20;99.90;;;;;;5072927;28;20206;-72
2021/07/21 06:48:01;;;;;;;13.73;8.40;;;18.20;99.90;;;;;;5072441;28;20616;-72
2021/07/21 06:50:28;;;;;;;14.13;8.38;;;18.30;99.90;;;;;;5072460;28;20198;-72
2021/07/21 06:52:55;;;;;;;15.98;9.18;;;18.30;99.90;;;;;;5072204;28;20546;-72
2021/07/21 06:55:22;;;;;;;16.25;9.23;;;18.30;99.90;;;;;;5072325;28;20243;-72
2021/07/21 06:57:49;;;;;;;15.77;10.00;;;18.40;99.90;;;;;;5071848;28;20268;-72
2021/07/21 07:00:17;;;;;;;15.75;9.40;;;18.50;99.90;;;;;;5072271;28;20202;-73
2021/07/21 07:02:44;;;;;;;17.58;9.55;;;18.50;99.90;;;;;;5072129;28;20202;-73
2021/07/21 07:05:13;;;;;;;13.85;8.77;;;18.40;99.90;;;;;;5072247;28;20198;-73
2021/07/21 07:07:40;;;;;;;28.60;10.18;;;18.40;99.90;;;;;;5072383;28;20600;-73
2021/07/21 07:10:09;;;;;;;17.50;9.40;;;18.40;99.90;;;;;;5071869;28;20269;-73
2021/07/21 07:12:36;;;;;;;18.02;9.68;;;18.30;99.90;;;;;;5071862;28;20187;-73
2021/07/21 07:15:04;;;;;;;14.82;9.20;;;18.50;99.90;;;;;;5072193;28;20664;-73
2021/07/21 07:17:31;;;;;;;14.43;8.55;;;18.70;99.90;;;;;;5071430;28;20218;-73
2021/07/21 07:19:58;;;;;;;15.18;9.52;;;18.80;99.90;;;;;;5072213;28;20228;-74
2021/07/21 07:22:26;;;;;;;15.43;8.77;;;18.70;99.90;;;;;;5071960;28;20263;-73
2021/07/21 07:24:53;;;;;;;18.00;9.60;;;18.80;99.90;;;;;;5071466;28;20202;-73
2021/07/21 07:27:20;;;;;;;17.10;9.20;;;18.90;99.90;;;;;;5071865;28;20288;-73
2021/07/21 07:29:47;;;;;;;17.17;9.23;;;18.80;99.90;;;;;;5071391;28;20202;-73
2021/07/21 07:32:14;;;;;;;13.82;7.82;;;18.70;99.90;;;;;;5071854;28;20202;-73
2021/07/21 07:34:41;;;;;;;12.77;7.68;;;18.90;99.90;;;;;;5071424;28;20203;-74
2021/07/21 07:37:09;;;;;;;11.55;7.18;;;18.80;99.90;;;;;;5071895;28;20327;-73
2021/07/21 07:39:37;;;;;;;13.40;7.68;;;18.90;99.90;;;;;;5071156;28;20229;-73
2021/07/21 07:42:04;;;;;;;13.32;7.63;;;18.90;99.90;;;;;;5071671;28;20707;-73
2021/07/21 07:44:32;;;;;;;13.70;7.80;;;18.90;99.90;;;;;;5071556;28;20267;-73
2021/07/21 07:46:59;;;;;;;12.73;8.13;;;19.00;99.90;;;;;;5070956;28;20203;-73
2021/07/21 07:49:26;;;;;;;14.70;8.13;;;19.00;99.90;;;;;;5071087;28;20206;-73
2021/07/21 07:51:53;;;;;;;12.88;7.43;;;19.20;99.90;;;;;;5071378;28;20233;-73
2021/07/21 07:54:21;;;;;;;14.30;7.90;;;19.30;99.90;;;;;;5070881;28;20248;-73
2021/07/21 07:56:50;;;;;;;12.35;7.32;;;19.30;99.90;;;;;;5071532;28;20209;-73
2021/07/21 07:59:17;;;;;;;12.68;7.18;;;19.30;99.90;;;;;;5071145;28;20255;-73
2021/07/21 08:01:44;;;;;;;12.50;7.75;;;19.40;99.90;;;;;;5055137;28;20252;-73
2021/07/21 08:04:11;;;;;;;11.73;7.25;;;19.40;99.90;;;;;;5059557;28;20249;-73
2021/07/21 08:06:38;;;;;;;12.98;7.63;;;19.60;99.90;;;;;;5057775;28;20629;-73
2021/07/21 08:09:12;;;;;;;13.45;7.93;;;19.60;99.90;;;;;;5055458;28;20246;-74
2021/07/21 08:11:40;;;;;;;12.57;7.13;;;19.30;99.90;;;;;;5056885;28;20652;-73
2021/07/21 08:14:09;;;;;;;10.40;6.68;;;19.40;99.90;;;;;;5058830;28;20207;-73
2021/07/21 08:16:36;;;;;;;12.43;6.90;;;19.50;99.90;;;;;;5062125;28;20279;-73
2021/07/21 08:19:03;;;;;;;14.55;6.63;;;19.70;99.90;;;;;;5065186;28;20240;-73
2021/07/21 08:21:30;;;;;;;10.27;6.55;;;19.90;99.90;;;;;;5062252;28;20259;-74
2021/07/21 08:23:58;;;;;;;11.90;6.38;;;19.90;99.90;;;;;;5060737;28;20281;-73
2021/07/21 08:26:24;;;;;;;12.18;6.90;;;19.90;99.90;;;;;;5056866;28;20210;-73
2021/07/21 08:28:52;;;;;;;12.63;6.63;;;19.80;99.90;;;;;;5064471;28;20202;-73
2021/07/21 08:31:21;;;;;;;12.55;6.30;;;20.00;99.90;;;;;;5054151;28;20260;-74
2021/07/21 08:33:48;;;;;;;10.75;7.18;;;20.00;99.90;;;;;;5057720;28;20244;-73
2021/07/21 08:36:15;;;;;;;9.43;5.82;;;19.80;99.90;;;;;;5059579;28;20244;-74
2021/07/21 08:38:43;;;;;;;10.88;5.70;;;20.00;99.90;;;;;;5053156;28;20227;-73
2021/07/21 08:41:10;;;;;;;10.82;6.15;;;19.90;99.90;;;;;;5053697;28;20864;-73
2021/07/21 08:43:38;;;;;;;9.98;5.88;;;20.00;99.90;;;;;;5056344;28;20238;-73
2021/07/21 08:46:06;;;;;;;10.32;6.00;;;20.40;99.90;;;;;;5049399;28;20290;-73
2021/07/21 08:48:34;;;;;;;7.82;5.32;;;20.50;99.90;;;;;;5046064;28;20211;-73
2021/07/21 08:51:01;;;;;;;8.75;5.88;;;20.50;99.90;;;;;;5052456;28;20627;-73
2021/07/21 08:53:30;;;;;;;10.25;6.60;;;20.60;99.90;;;;;;5055380;28;20618;-74
2021/07/21 08:55:57;;;;;;;9.43;6.15;;;20.60;99.90;;;;;;5051653;28;20598;-73
2021/07/21 08:58:24;;;;;;;10.30;6.05;;;20.70;99.90;;;;;;5054625;28;20299;-73
2021/07/21 09:00:53;;;;;;;10.20;5.85;;;20.80;99.90;;;;;;5053413;28;20233;-74
2021/07/21 09:03:21;;;;;;;10.15;5.60;;;21.00;99.90;;;;;;5064033;28;20660;-73
2021/07/21 09:05:51;;;;;;;9.05;6.13;;;21.10;99.90;;;;;;5057139;28;20590;-73
2021/07/21 09:08:18;;;;;;;9.75;6.22;;;21.10;99.90;;;;;;5060351;28;20260;-74
2021/07/21 09:10:46;;;;;;;8.70;5.93;;;20.90;99.90;;;;;;5065477;28;20237;-73
2021/07/21 09:13:13;;;;;;;9.07;6.20;;;21.20;99.90;;;;;;5066880;28;20613;-73
2021/07/21 09:15:42;;;;;;;10.02;5.82;;;21.20;99.90;;;;;;5064496;28;20582;-73
2021/07/21 09:18:11;;;;;;;9.00;5.57;;;21.30;99.90;;;;;;5063259;28;20279;-73
2021/07/21 09:20:40;;;;;;;7.78;4.80;;;21.40;99.90;;;;;;5065222;28;20206;-73
2021/07/21 09:23:09;;;;;;;7.40;5.40;;;21.20;99.90;;;;;;5057670;28;20632;-73
2021/07/21 09:25:38;;;;;;;6.22;4.85;;;21.30;99.90;;;;;;5060984;28;20288;-73
2021/07/21 09:28:08;;;;;;;9.13;5.13;;;21.30;99.90;;;;;;5061074;28;20489;-73
2021/07/21 09:30:37;;;;;;;8.05;5.78;;;21.40;99.90;;;;;;5056644;28;20644;-73
2021/07/21 09:33:06;;;;;;;8.25;5.80;;;21.40;99.90;;;;;;5059103;28;20198;-73
2021/07/21 09:35:35;;;;;;;9.32;5.57;;;21.30;99.90;;;;;;5061813;28;20717;-73
2021/07/21 09:38:05;;;;;;;10.40;6.50;;;21.10;99.90;;;;;;5055155;28;20222;-73
2021/07/21 09:40:35;;;;;;;10.88;5.93;;;21.00;99.90;;;;;;5062087;28;20722;-73
2021/07/21 09:43:03;;;;;;;8.10;5.47;;;21.20;99.90;;;;;;5054937;28;20207;-73
2021/07/21 09:45:37;;;;;;;9.27;5.97;;;21.00;99.90;;;;;;5059016;28;20202;-73
2021/07/21 09:48:04;;;;;;;8.60;5.65;;;21.20;99.90;;;;;;5056672;28;20640;-73
2021/07/21 09:50:35;;;;;;;9.30;6.20;;;21.50;99.90;;;;;;5050151;28;20296;-73
2021/07/21 09:53:05;;;;;;;11.00;6.47;;;21.60;99.90;;;;;;5057571;28;20207;-73
2021/07/21 09:55:35;;;;;;;10.20;7.00;;;21.40;99.90;;;;;;5065332;28;20208;-73
2021/07/21 09:58:05;;;;;;;10.98;7.43;;;21.50;99.90;;;;;;5063939;28;20325;-73
2021/07/21 10:00:34;;;;;;;10.07;7.00;;;21.60;99.90;;;;;;5066267;28;20246;-73
2021/07/21 10:03:21;;;;;;;11.00;7.07;;;21.50;99.90;;;;;;5051216;28;20554;-73
2021/07/21 10:05:57;;;;;;;7.95;5.93;;;21.60;99.90;;;;;;5062472;28;20688;-73
2021/07/21 10:08:34;;;;;;;9.20;5.75;;;21.70;99.90;;;;;;5065484;28;20209;-73
2021/07/21 10:11:22;;;;;;;11.18;6.10;;;21.50;99.90;;;;;;5046711;28;20209;-73
2021/07/21 10:13:49;;;;;;;10.02;6.82;;;21.50;99.90;;;;;;5063303;28;20259;-73
2021/07/21 10:16:33;;;;;;;10.48;6.25;;;21.10;99.90;;;;;;5054912;28;20199;-73
2021/07/21 10:19:08;;;;;;;10.50;6.63;;;21.50;99.90;;;;;;5054183;28;20280;-73
2021/07/21 10:21:37;;;;;;;11.32;6.03;;;21.00;99.90;;;;;;5046977;28;20202;-73
2021/07/21 10:24:06;;;;;;;10.73;6.28;;;21.00;99.90;;;;;;5052897;28;20207;-73
2021/07/21 10:26:35;;;;;;;11.88;6.88;;;20.80;99.90;;;;;;5054375;28;20299;-73
2021/07/21 10:29:02;;;;;;;7.90;6.10;;;21.00;99.90;;;;;;5058493;28;20260;-72
2021/07/21 10:31:30;;;;;;;11.18;6.90;;;21.00;99.90;;;;;;5056127;28;20211;-72
2021/07/21 10:33:58;;;;;;;11.35;6.97;;;21.00;99.90;;;;;;5060823;28;20307;-72
2021/07/21 10:36:25;;;;;;;11.32;6.70;;;21.00;99.90;;;;;;5063487;28;20458;-72
2021/07/21 10:38:52;;;;;;;10.68;6.63;;;21.00;99.90;;;;;;5058358;28;20230;-72
2021/07/21 10:41:20;;;;;;;12.93;7.85;;;21.00;99.90;;;;;;5058947;28;20233;-72
2021/07/21 10:43:52;;;;;;;12.40;7.30;;;20.90;99.90;;;;;;5060973;28;20211;-72
2021/07/21 10:46:33;;;;;;;11.95;7.03;;;20.90;99.90;;;;;;5047621;28;20280;-72
2021/07/21 10:49:16;;;;;;;9.82;6.20;;;20.90;99.90;;;;;;5056340;28;20250;-72
2021/07/21 10:52:09;;;;;;;9.48;5.57;;;20.70;99.90;;;;;;5044590;28;20230;-72
2021/07/21 10:54:50;;;;;;;11.35;6.22;;;20.70;99.90;;;;;;5054806;28;20213;-72
2021/07/21 11:00:10;;;;;;;11.23;6.10;;;20.80;99.90;;;;;;5054235;28;20285;-72
2021/07/21 11:02:37;;;;;;;10.93;6.25;;;20.80;99.90;;;;;;5059879;28;20259;-72
2021/07/21 11:05:08;;;;;;;10.30;5.95;;;20.70;99.90;;;;;;5063636;28;20537;-72
2021/07/21 11:07:52;;;;;;;9.88;6.95;;;20.80;99.90;;;;;;5063701;28;20221;-72
2021/07/21 11:10:37;;;;;;;9.10;5.97;;;20.90;99.90;;;;;;5057237;28;20647;-72
2021/07/21 11:13:06;;;;;;;10.82;6.72;;;20.80;99.90;;;;;;5063370;28;20236;-72
2021/07/21 11:15:38;;;;;;;11.40;6.35;;;20.80;99.90;;;;;;5057099;28;20219;-72
2021/07/21 11:18:45;;;;;;;9.13;5.70;;;20.90;99.90;;;;;;5045970;28;20215;-70
2021/07/21 11:21:14;;;;;;;8.77;6.13;;;20.90;99.90;;;;;;5044878;28;20971;-70
2021/07/21 11:23:43;;;;;;;9.82;5.72;;;20.80;99.90;;;;;;5058987;28;20250;-70
2021/07/21 11:26:47;;;;;;;8.77;6.43;;;20.90;99.90;;;;;;5054584;28;20203;-71
2021/07/21 11:29:43;;;;;;;8.77;5.70;;;21.00;99.90;;;;;;5056244;28;20224;-70
2021/07/21 11:32:30;;;;;;;11.15;6.80;;;21.00;99.90;;;;;;5053448;28;20214;-70
2021/07/21 11:34:58;;;;;;;11.55;7.53;;;21.00;99.90;;;;;;5056716;28;20206;-70
2021/07/21 11:37:32;;;;;;;10.50;6.38;;;21.20;99.90;;;;;;5058135;28;20214;-70
2021/07/21 11:40:00;;;;;;;10.73;6.38;;;21.40;99.90;;;;;;5052383;28;20226;-70
2021/07/21 11:42:38;;;;;;;9.73;6.45;;;21.50;99.90;;;;;;5053057;28;20251;-70
2021/07/21 11:45:18;;;;;;;14.68;7.38;;;21.50;99.90;;;;;;5063900;28;20210;-70
2021/07/21 11:47:53;;;;;;;11.27;6.57;;;21.60;99.90;;;;;;5054342;28;20561;-70
2021/07/21 11:50:22;;;;;;;11.15;6.63;;;21.60;99.90;;;;;;5052463;28;20292;-70
2021/07/21 11:52:52;;;;;;;10.45;6.85;;;21.60;99.90;;;;;;5061182;28;20287;-70
2021/07/21 11:55:22;;;;;;;9.65;6.60;;;21.80;99.90;;;;;;5046742;28;20208;-70
2021/07/21 11:57:49;;;;;;;10.98;7.35;;;21.80;99.90;;;;;;5052666;28;20254;-70
2021/07/21 12:00:19;;;;;;;11.52;7.35;;;22.00;99.90;;;;;;5044328;28;20219;-70
2021/07/21 12:02:47;;;;;;;12.65;7.82;;;21.90;99.90;;;;;;5060033;28;20255;-70
2021/07/21 12:05:15;;;;;;;11.90;7.57;;;22.00;99.90;;;;;;5063230;28;20207;-70
2021/07/21 12:07:46;;;;;;;11.23;7.35;;;22.20;99.90;;;;;;5065483;28;20206;-70
2021/07/21 12:10:16;;;;;;;10.95;7.28;;;22.10;99.90;;;;;;5062030;28;20432;-70
2021/07/21 12:12:44;;;;;;;10.52;7.07;;;22.10;99.90;;;;;;5062238;28;20705;-70
2021/07/21 12:15:15;;;;;;;10.43;6.95;;;22.30;99.90;;;;;;5064220;28;20198;-70
2021/07/21 12:17:43;;;;;;;10.93;7.35;;;22.10;99.90;;;;;;5062930;28;20652;-70
2021/07/21 12:20:14;;;;;;;11.70;7.40;;;22.00;99.90;;;;;;5064075;28;20307;-70
2021/07/21 12:22:42;;;;;;;11.73;7.10;;;22.30;99.90;;;;;;5063920;28;20210;-70
2021/07/21 12:25:11;;;;;;;11.95;7.22;;;22.50;99.90;;;;;;5063357;28;20216;-70
2021/07/21 12:27:39;;;;;;;11.35;7.28;;;22.60;99.90;;;;;;5061350;28;20248;-70
2021/07/21 12:30:09;;;;;;;11.70;7.25;;;22.50;99.90;;;;;;5060180;28;20194;-70
2021/07/21 12:32:37;;;;;;;10.30;7.07;;;22.50;99.90;;;;;;5064282;28;20551;-70
2021/07/21 12:35:06;;;;;;;11.45;7.28;;;22.50;99.90;;;;;;5066570;28;20203;-70
2021/07/21 12:37:42;;;;;;;12.70;7.85;;;22.60;99.90;;;;;;5067824;28;20202;-70
2021/07/21 12:40:11;;;;;;;10.43;6.93;;;22.50;99.90;;;;;;5065483;28;20213;-70
2021/07/21 12:42:39;;;;;;;11.98;7.90;;;22.40;99.90;;;;;;5067884;28;20259;-70
2021/07/21 12:45:08;;;;;;;14.57;8.23;;;22.50;99.90;;;;;;5069033;28;20206;-70
2021/07/21 12:47:37;;;;;;;13.45;7.70;;;22.70;99.90;;;;;;5068769;28;20251;-70
2021/07/21 12:50:07;;;;;;;12.13;7.90;;;22.50;99.90;;;;;;5065887;28;20218;-70
2021/07/21 12:52:41;;;;;;;12.35;7.47;;;22.70;99.90;;;;;;5047834;28;20272;-70
2021/07/21 12:55:10;;;;;;;12.50;8.25;;;22.70;99.90;;;;;;5064049;28;20207;-70